createdAt,value
2019-05-23T00:00:46.399Z,10.20
2019-05-23T00:03:14.273Z,10.20
2019-05-23T00:05:42.464Z,10.10
2019-05-23T00:08:10.540Z,10.00
2019-05-23T00:10:40.210Z,10.00
2019-05-23T00:13:14.498Z,10.00
2019-05-23T00:15:42.464Z,10.00
2019-05-23T00:18:08.887Z,10.00
2019-05-23T00:20:35.036Z,10.00
2019-05-23T00:23:01.836Z,10.10
2019-05-23T00:25:28.512Z,10.00
2019-05-23T00:27:55.666Z,10.10
2019-05-23T00:30:26.794Z,10.10
2019-05-23T00:32:55.263Z,10.10
2019-05-23T00:35:23.272Z,10.10
2019-05-23T00:37:50.743Z,10.10
2019-05-23T00:40:17.930Z,10.00
2019-05-23T00:42:44.809Z,9.90
2019-05-23T00:45:12.680Z,9.80
2019-05-23T00:47:39.075Z,9.80
2019-05-23T00:50:09.063Z,9.70
2019-05-23T00:52:36.870Z,9.80
2019-05-23T00:55:05.340Z,9.80
2019-05-23T00:57:32.729Z,9.70
2019-05-23T00:59:59.404Z,9.70
2019-05-23T01:02:27.100Z,9.70
2019-05-23T01:04:53.692Z,9.70
2019-05-23T01:07:21.172Z,9.70
2019-05-23T01:09:49.259Z,9.70
2019-05-23T01:12:16.056Z,9.80
2019-05-23T01:14:42.520Z,9.90
2019-05-23T01:17:09.609Z,9.90
2019-05-23T01:19:36.480Z,9.80
2019-05-23T01:22:13.552Z,9.80
2019-05-23T01:24:41.624Z,9.90
2019-05-23T01:27:08.426Z,9.90
2019-05-23T01:29:39.684Z,10.00
2019-05-23T01:32:13.698Z,10.00
2019-05-23T01:34:40.785Z,10.10
2019-05-23T01:37:07.573Z,10.10
2019-05-23T01:39:33.871Z,10.20
2019-05-23T01:41:59.951Z,10.20
2019-05-23T01:44:26.531Z,10.20
2019-05-23T01:46:52.916Z,10.20
2019-05-23T01:49:21.312Z,10.30
2019-05-23T01:51:48.582Z,10.30
2019-05-23T01:54:15.234Z,10.30
2019-05-23T01:56:41.919Z,10.20
2019-05-23T01:59:08.042Z,10.20
2019-05-23T02:01:34.619Z,10.20
2019-05-23T02:04:01.756Z,10.30
2019-05-23T02:06:28.136Z,10.40
2019-05-23T02:08:55.195Z,10.40
2019-05-23T02:11:22.287Z,10.50
2019-05-23T02:13:49.564Z,10.50
2019-05-23T02:16:15.651Z,10.50
2019-05-23T02:18:42.447Z,10.50
2019-05-23T02:21:09.338Z,10.50
2019-05-23T02:23:35.911Z,10.50
2019-05-23T02:26:03.008Z,10.60
2019-05-23T02:28:29.393Z,10.50
2019-05-23T02:30:57.799Z,10.60
2019-05-23T02:33:24.524Z,10.60
2019-05-23T02:35:51.024Z,10.60
2019-05-23T02:38:33.933Z,10.50
2019-05-23T02:41:02.040Z,10.50
2019-05-23T02:43:30.348Z,10.40
2019-05-23T02:45:58.464Z,10.40
2019-05-23T02:48:29.952Z,10.50
2019-05-23T02:51:00.241Z,10.50
2019-05-23T02:53:30.613Z,10.50
2019-05-23T02:56:01.114Z,10.40
2019-05-23T02:58:35.852Z,10.40
2019-05-23T03:01:40.957Z,10.40
2019-05-23T03:04:11.540Z,10.40
2019-05-23T03:06:38.932Z,10.40
2019-05-23T03:09:08.013Z,10.40
2019-05-23T03:11:38.614Z,10.40
2019-05-23T03:14:05.081Z,10.30
2019-05-23T03:16:33.264Z,10.30
2019-05-23T03:19:05.053Z,10.30
2019-05-23T03:21:31.140Z,10.20
2019-05-23T03:23:58.300Z,10.20
2019-05-23T03:26:39.284Z,10.20
2019-05-23T03:29:07.657Z,10.10
2019-05-23T03:31:52.589Z,10.10
2019-05-23T03:34:20.971Z,10.10
2019-05-23T03:36:48.063Z,10.10
2019-05-23T03:39:14.119Z,10.00
2019-05-23T03:41:40.738Z,10.00
2019-05-23T03:44:08.331Z,10.00
2019-05-23T03:46:37.121Z,10.00
2019-05-23T03:49:04.298Z,10.00
2019-05-23T03:51:30.620Z,10.00
2019-05-23T03:53:56.858Z,10.00
2019-05-23T03:56:24.282Z,9.90
2019-05-23T03:58:51.248Z,9.90
2019-05-23T04:01:19.436Z,9.80
2019-05-23T04:03:47.414Z,9.80
2019-05-23T04:06:14.741Z,9.80
2019-05-23T04:08:41.168Z,9.80
2019-05-23T04:11:07.480Z,9.60
2019-05-23T04:13:33.945Z,9.50
2019-05-23T04:16:00.227Z,9.50
2019-05-23T04:18:26.816Z,9.40
2019-05-23T04:20:53.709Z,9.50
2019-05-23T04:23:20.484Z,9.60
2019-05-23T04:25:47.016Z,9.80
2019-05-23T04:28:13.685Z,9.90
2019-05-23T04:30:39.779Z,10.00
2019-05-23T04:33:06.169Z,10.20
2019-05-23T04:35:33.125Z,10.20
2019-05-23T04:37:59.486Z,10.20
2019-05-23T04:40:28.637Z,10.20
2019-05-23T04:42:54.735Z,10.20
2019-05-23T04:45:21.390Z,10.20
2019-05-23T04:47:47.466Z,10.10
2019-05-23T04:50:13.814Z,10.10
2019-05-23T04:52:40.442Z,10.00
2019-05-23T04:55:08.191Z,10.10
2019-05-23T04:57:34.560Z,10.00
2019-05-23T05:00:03.127Z,10.10
2019-05-23T05:02:29.515Z,10.10
2019-05-23T05:04:56.288Z,10.10
2019-05-23T05:07:22.390Z,10.20
2019-05-23T05:09:48.753Z,10.30
2019-05-23T05:12:16.727Z,10.30
2019-05-23T05:14:43.425Z,10.50
2019-05-23T05:17:11.117Z,10.70
2019-05-23T05:19:37.800Z,10.90
2019-05-23T05:22:03.877Z,11.10
2019-05-23T05:24:30.144Z,11.30
2019-05-23T05:26:56.246Z,11.50
2019-05-23T05:29:22.406Z,11.70
2019-05-23T05:31:48.522Z,11.80
2019-05-23T05:34:14.896Z,12.00
2019-05-23T05:36:40.972Z,12.20
2019-05-23T05:39:08.572Z,12.30
2019-05-23T05:41:35.442Z,12.60
2019-05-23T05:44:02.132Z,12.90
2019-05-23T05:46:28.183Z,13.10
2019-05-23T05:48:55.156Z,13.30
2019-05-23T05:51:21.526Z,13.30
2019-05-23T05:53:47.834Z,13.30
2019-05-23T05:56:14.010Z,13.30
2019-05-23T05:58:40.187Z,13.40
2019-05-23T06:01:08.367Z,13.60
2019-05-23T06:03:34.551Z,13.60
2019-05-23T06:06:08.379Z,13.60
2019-05-23T06:08:39.227Z,13.70
2019-05-23T06:11:05.491Z,13.90
2019-05-23T06:13:31.644Z,14.10
2019-05-23T06:15:57.856Z,14.10
2019-05-23T06:18:23.925Z,14.10
2019-05-23T06:20:50.513Z,14.10
2019-05-23T06:23:17.004Z,14.00
2019-05-23T06:25:43.203Z,14.10
2019-05-23T06:28:11.043Z,14.40
2019-05-23T06:30:38.735Z,14.50
2019-05-23T06:33:21.854Z,14.70
2019-05-23T06:35:34.996Z,14.70
2019-05-23T06:38:01.358Z,14.70
2019-05-23T06:40:28.752Z,14.70
2019-05-23T06:42:55.222Z,14.60
2019-05-23T06:45:22.336Z,14.70
2019-05-23T06:47:48.811Z,14.90
2019-05-23T06:50:16.977Z,15.10
2019-05-23T06:52:43.162Z,15.30
2019-05-23T06:55:09.943Z,15.50
2019-05-23T06:57:36.032Z,15.60
2019-05-23T07:00:05.010Z,15.70
2019-05-23T07:02:32.308Z,15.80
2019-05-23T07:04:58.583Z,15.80
2019-05-23T07:07:25.258Z,15.70
2019-05-23T07:09:51.456Z,15.80
2019-05-23T07:12:17.533Z,16.00
2019-05-23T07:14:43.802Z,16.10
2019-05-23T07:17:11.199Z,16.10
2019-05-23T07:19:37.259Z,16.40
2019-05-23T07:22:03.657Z,16.50
2019-05-23T07:24:30.118Z,16.60
2019-05-23T07:26:56.403Z,16.90
2019-05-23T07:29:23.190Z,17.20
2019-05-23T07:31:49.292Z,17.30
2019-05-23T07:34:16.083Z,17.40
2019-05-23T07:36:42.267Z,17.40
2019-05-23T07:39:11.497Z,17.40
2019-05-23T07:41:37.080Z,17.30
2019-05-23T07:44:03.901Z,17.30
2019-05-23T07:46:30.146Z,17.10
2019-05-23T07:48:57.111Z,17.00
2019-05-23T07:51:23.423Z,16.70
2019-05-23T07:53:54.173Z,16.60
2019-05-23T07:56:22.167Z,16.70
2019-05-23T07:58:48.630Z,16.90
2019-05-23T08:01:16.620Z,17.10
2019-05-23T08:03:44.717Z,17.30
2019-05-23T08:06:10.901Z,17.40
2019-05-23T08:08:37.375Z,17.40
2019-05-23T08:11:03.856Z,17.80
2019-05-23T08:13:30.558Z,18.00
2019-05-23T08:15:57.030Z,18.30
2019-05-23T08:18:23.537Z,18.70
2019-05-23T08:20:49.707Z,18.90
2019-05-23T08:23:16.301Z,19.10
2019-05-23T08:25:42.772Z,19.00
2019-05-23T08:28:09.169Z,19.20
2019-05-23T08:30:35.559Z,19.10
2019-05-23T08:33:02.573Z,18.90
2019-05-23T08:35:28.751Z,18.80
2019-05-23T08:37:55.010Z,18.80
2019-05-23T08:40:23.132Z,18.60
2019-05-23T08:42:49.396Z,18.80
2019-05-23T08:45:16.469Z,18.80
2019-05-23T08:47:43.044Z,18.50
2019-05-23T08:50:10.640Z,18.20
2019-05-23T08:52:37.315Z,18.20
2019-05-23T08:55:21.437Z,18.40
2019-05-23T08:57:48.257Z,18.40
2019-05-23T09:00:14.640Z,18.60
2019-05-23T09:02:41.796Z,19.00
2019-05-23T09:05:09.397Z,19.40
2019-05-23T09:07:35.457Z,19.90
2019-05-23T09:10:04.229Z,20.00
2019-05-23T09:12:30.621Z,20.00
2019-05-23T09:14:57.503Z,20.00
2019-05-23T09:17:23.704Z,19.60
2019-05-23T09:19:50.163Z,19.20
2019-05-23T09:22:16.237Z,18.60
2019-05-23T09:24:42.431Z,18.10
2019-05-23T09:27:09.307Z,17.90
2019-05-23T09:29:36.107Z,17.80
2019-05-23T09:32:03.703Z,18.00
2019-05-23T09:34:29.875Z,17.70
2019-05-23T09:37:00.004Z,17.60
2019-05-23T09:39:26.438Z,17.70
2019-05-23T09:41:52.504Z,17.70
2019-05-23T09:44:18.880Z,17.60
2019-05-23T09:46:44.955Z,17.60
2019-05-23T09:49:11.568Z,18.00
2019-05-23T09:51:38.404Z,18.90
2019-05-23T09:54:04.705Z,19.70
2019-05-23T09:56:31.408Z,20.30
2019-05-23T09:58:57.471Z,20.30
2019-05-23T10:01:23.770Z,20.60
2019-05-23T10:03:49.960Z,21.00
2019-05-23T10:06:16.062Z,20.90
2019-05-23T10:08:42.144Z,20.40
2019-05-23T10:11:08.220Z,20.20
2019-05-23T10:13:38.941Z,20.40
2019-05-23T10:16:04.473Z,20.60
2019-05-23T10:18:30.563Z,20.30
2019-05-23T10:20:56.855Z,20.00
2019-05-23T10:23:22.922Z,19.80
2019-05-23T10:25:49.010Z,20.00
2019-05-23T10:28:15.886Z,20.30
2019-05-23T10:30:42.072Z,20.50
2019-05-23T10:33:12.110Z,21.20
2019-05-23T10:35:36.956Z,21.20
2019-05-23T10:38:03.360Z,21.10
2019-05-23T10:40:29.752Z,20.90
2019-05-23T10:42:55.823Z,20.80
2019-05-23T10:45:22.111Z,20.70
2019-05-23T10:47:48.175Z,20.80
2019-05-23T10:50:14.604Z,21.10
2019-05-23T10:52:40.748Z,21.60
2019-05-23T10:55:07.154Z,21.70
2019-05-23T10:57:33.365Z,21.40
2019-05-23T10:59:59.592Z,21.10
2019-05-23T11:02:27.243Z,20.70
2019-05-23T11:04:53.895Z,19.90
2019-05-23T11:07:20.564Z,20.00
2019-05-23T11:09:46.836Z,20.60
2019-05-23T11:12:12.916Z,20.60
2019-05-23T11:14:39.102Z,20.70
2019-05-23T11:17:06.017Z,20.90
2019-05-23T11:19:32.290Z,21.20
2019-05-23T11:21:58.579Z,21.10
2019-05-23T11:24:24.969Z,21.20
2019-05-23T11:26:51.347Z,21.50
2019-05-23T11:29:17.950Z,21.90
2019-05-23T11:31:44.222Z,22.30
2019-05-23T11:34:10.586Z,22.70
2019-05-23T11:36:37.166Z,22.40
2019-05-23T11:39:06.645Z,21.90
2019-05-23T11:41:33.132Z,21.10
2019-05-23T11:43:59.407Z,20.40
2019-05-23T11:46:27.384Z,20.30
2019-05-23T11:48:53.557Z,20.50
2019-05-23T11:51:24.168Z,21.30
2019-05-23T11:54:05.986Z,21.90
2019-05-23T11:56:16.514Z,22.50
2019-05-23T11:58:42.793Z,22.80
2019-05-23T12:01:20.534Z,23.10
2019-05-23T12:03:43.830Z,23.00
2019-05-23T12:06:09.911Z,22.90
2019-05-23T12:08:36.003Z,22.90
2019-05-23T12:11:02.374Z,23.20
2019-05-23T12:13:29.743Z,23.50
2019-05-23T12:15:56.157Z,23.40
2019-05-23T12:18:22.311Z,23.20
2019-05-23T12:20:48.433Z,23.10
2019-05-23T12:23:14.715Z,23.30
2019-05-23T12:25:41.187Z,23.70
2019-05-23T12:28:07.288Z,23.80
2019-05-23T12:30:33.800Z,24.30
2019-05-23T12:33:00.079Z,25.00
2019-05-23T12:35:26.132Z,25.80
2019-05-23T12:37:52.200Z,26.30
2019-05-23T12:40:18.597Z,26.70
2019-05-23T12:42:44.673Z,27.70
2019-05-23T12:45:11.276Z,28.60
2019-05-23T12:47:39.281Z,28.00
2019-05-23T12:50:19.130Z,27.80
2019-05-23T12:52:45.314Z,27.50
2019-05-23T12:55:11.858Z,28.20
2019-05-23T12:57:38.114Z,29.20
2019-05-23T13:00:07.920Z,29.80
2019-05-23T13:02:34.664Z,30.10
2019-05-23T13:05:00.732Z,30.10
2019-05-23T13:07:35.928Z,29.70
2019-05-23T13:09:55.099Z,29.10
2019-05-23T13:12:21.580Z,28.90
2019-05-23T13:14:47.751Z,29.40
2019-05-23T13:17:14.035Z,29.80
2019-05-23T13:19:40.708Z,30.50
2019-05-23T13:22:08.683Z,31.50
2019-05-23T13:24:51.401Z,32.00
2019-05-23T13:27:03.288Z,32.60
2019-05-23T13:29:30.406Z,32.60
2019-05-23T13:31:56.864Z,32.20
2019-05-23T13:34:22.948Z,32.10
2019-05-23T13:36:49.038Z,31.40
2019-05-23T13:39:15.817Z,31.40
2019-05-23T13:41:41.930Z,31.60
2019-05-23T13:44:07.989Z,32.00
2019-05-23T13:46:34.275Z,32.10
2019-05-23T13:49:00.371Z,32.00
2019-05-23T13:51:26.462Z,31.30
2019-05-23T13:53:52.818Z,30.40
2019-05-23T13:56:19.174Z,29.20
2019-05-23T13:58:45.855Z,29.30
2019-05-23T14:01:12.612Z,30.10
2019-05-23T14:03:39.460Z,30.30
2019-05-23T14:06:07.327Z,30.40
2019-05-23T14:08:34.020Z,31.20
2019-05-23T14:11:00.303Z,30.90
2019-05-23T14:13:27.263Z,30.90
2019-05-23T14:15:54.112Z,31.70
2019-05-23T14:18:21.874Z,32.20
2019-05-23T14:20:48.675Z,32.30
2019-05-23T14:23:17.473Z,31.90
2019-05-23T14:25:44.367Z,32.60
2019-05-23T14:28:10.962Z,33.50
2019-05-23T14:30:41.790Z,33.70
2019-05-23T14:33:25.442Z,33.80
2019-05-23T14:35:56.279Z,33.10
2019-05-23T14:38:30.668Z,32.90
2019-05-23T14:40:50.651Z,33.80
2019-05-23T14:43:21.508Z,34.60
2019-05-23T14:45:49.491Z,34.90
2019-05-23T14:48:26.541Z,34.40
2019-05-23T14:51:09.943Z,34.60
2019-05-23T14:53:40.442Z,34.70
2019-05-23T14:56:06.818Z,35.10
2019-05-23T14:58:33.188Z,34.50
2019-05-23T15:00:59.960Z,34.80
2019-05-23T15:03:26.803Z,35.10
2019-05-23T15:05:53.536Z,35.00
2019-05-23T15:08:19.587Z,35.20
2019-05-23T15:10:45.642Z,35.80
2019-05-23T15:13:12.339Z,35.70
2019-05-23T15:15:38.415Z,34.60
2019-05-23T15:18:04.885Z,34.40
2019-05-23T15:20:31.180Z,34.70
2019-05-23T15:22:59.831Z,34.90
2019-05-23T15:25:25.525Z,34.50
2019-05-23T15:27:51.608Z,34.50
2019-05-23T15:30:18.379Z,35.20
2019-05-23T15:32:44.593Z,34.50
2019-05-23T15:35:10.852Z,33.50
2019-05-23T15:37:36.941Z,33.00
2019-05-23T15:40:04.021Z,33.40
2019-05-23T15:42:30.197Z,33.40
2019-05-23T15:44:56.311Z,33.50
2019-05-23T15:47:24.288Z,34.00
2019-05-23T15:49:52.266Z,33.40
2019-05-23T15:52:29.645Z,33.10
2019-05-23T15:54:57.730Z,33.30
2019-05-23T15:57:34.856Z,33.30
2019-05-23T16:00:06.190Z,33.30
2019-05-23T16:02:34.185Z,32.90
2019-05-23T16:05:00.258Z,32.90
2019-05-23T16:07:27.649Z,33.30
2019-05-23T16:09:53.826Z,33.10
2019-05-23T16:12:20.095Z,32.70
2019-05-23T16:14:46.569Z,32.20
2019-05-23T16:17:13.156Z,32.00
2019-05-23T16:19:40.225Z,32.70
2019-05-23T16:22:06.908Z,32.50
2019-05-23T16:24:33.492Z,31.90
2019-05-23T16:27:00.909Z,31.60
2019-05-23T16:29:27.884Z,31.90
2019-05-23T16:31:54.169Z,32.40
2019-05-23T16:34:20.552Z,31.80
2019-05-23T16:36:46.933Z,31.30
2019-05-23T16:39:13.233Z,31.10
2019-05-23T16:41:39.301Z,31.40
2019-05-23T16:44:05.395Z,31.60
2019-05-23T16:46:31.685Z,31.30
2019-05-23T16:48:58.189Z,31.20
2019-05-23T16:51:24.280Z,31.10
2019-05-23T16:53:50.957Z,31.10
2019-05-23T16:56:19.233Z,31.30
2019-05-23T16:59:05.823Z,31.30
2019-05-23T17:01:57.928Z,31.30
2019-05-23T17:04:20.876Z,31.30
2019-05-23T17:06:58.081Z,30.50
2019-05-23T17:09:26.053Z,30.10
2019-05-23T17:11:56.799Z,29.00
2019-05-23T17:14:24.784Z,27.90
2019-05-23T17:17:05.517Z,26.60
2019-05-23T17:19:34.395Z,25.70
2019-05-23T17:22:08.181Z,24.60
2019-05-23T17:24:39.789Z,23.70
2019-05-23T17:27:08.935Z,23.00
2019-05-23T17:29:39.732Z,22.60
2019-05-23T17:32:07.805Z,22.30
2019-05-23T17:34:34.180Z,22.00
2019-05-23T17:37:00.476Z,21.40
2019-05-23T17:39:27.646Z,21.00
2019-05-23T17:41:53.729Z,20.60
2019-05-23T17:44:19.999Z,20.60
2019-05-23T17:46:46.075Z,20.50
2019-05-23T17:49:12.148Z,20.10
2019-05-23T17:51:38.422Z,19.80
2019-05-23T17:54:04.517Z,19.60
2019-05-23T17:56:30.803Z,19.30
2019-05-23T17:58:56.877Z,19.20
2019-05-23T18:01:24.221Z,19.00
2019-05-23T18:03:50.350Z,18.70
2019-05-23T18:06:16.541Z,18.50
2019-05-23T18:08:43.111Z,18.30
2019-05-23T18:11:09.807Z,18.20
2019-05-23T18:13:36.881Z,18.10
2019-05-23T18:16:03.161Z,17.90
2019-05-23T18:18:29.652Z,17.80
2019-05-23T18:20:55.692Z,17.70
2019-05-23T18:23:21.985Z,17.50
2019-05-23T18:25:48.339Z,17.40
2019-05-23T18:28:14.813Z,17.30
2019-05-23T18:30:49.289Z,17.30
2019-05-23T18:33:16.035Z,17.20
2019-05-23T18:35:43.091Z,17.00
2019-05-23T18:38:09.411Z,16.90
2019-05-23T18:40:36.497Z,16.80
2019-05-23T18:43:04.463Z,16.80
2019-05-23T18:45:32.444Z,16.60
2019-05-23T18:47:58.928Z,16.50
2019-05-23T18:50:25.315Z,16.40
2019-05-23T18:52:52.133Z,16.30
2019-05-23T18:55:18.378Z,16.10
2019-05-23T18:57:44.712Z,15.90
2019-05-23T19:00:11.740Z,15.70
2019-05-23T19:02:39.407Z,15.50
2019-05-23T19:05:08.696Z,15.20
2019-05-23T19:07:35.178Z,14.90
2019-05-23T19:10:03.560Z,14.60
2019-05-23T19:12:30.454Z,14.30
2019-05-23T19:14:56.611Z,14.00
2019-05-23T19:17:22.687Z,13.70
2019-05-23T19:19:48.848Z,13.60
2019-05-23T19:22:15.127Z,13.50
2019-05-23T19:24:41.296Z,13.40
2019-05-23T19:27:09.288Z,13.20
2019-05-23T19:29:35.750Z,13.20
2019-05-23T19:32:01.842Z,13.00
2019-05-23T19:34:28.320Z,12.80
2019-05-23T19:36:54.394Z,12.60
2019-05-23T19:39:21.679Z,12.50
2019-05-23T19:41:48.154Z,12.40
2019-05-23T19:44:14.532Z,12.30
2019-05-23T19:46:40.836Z,12.10
2019-05-23T19:49:08.205Z,12.00
2019-05-23T19:51:34.396Z,11.90
2019-05-23T19:54:00.750Z,11.80
2019-05-23T19:56:27.310Z,11.70
2019-05-23T19:58:53.372Z,11.60
2019-05-23T20:01:19.951Z,11.50
2019-05-23T20:03:47.122Z,11.40
2019-05-23T20:06:13.406Z,11.30
2019-05-23T20:08:39.892Z,11.30
2019-05-23T20:11:06.268Z,11.20
2019-05-23T20:13:32.423Z,11.10
2019-05-23T20:15:58.508Z,11.10
2019-05-23T20:18:25.279Z,11.10
2019-05-23T20:20:51.834Z,11.00
2019-05-23T20:23:18.251Z,11.10
2019-05-23T20:25:44.440Z,11.00
2019-05-23T20:28:10.888Z,11.00
2019-05-23T20:30:44.651Z,10.90
2019-05-23T20:33:30.602Z,10.80
2019-05-23T20:35:56.792Z,10.80
2019-05-23T20:38:24.451Z,10.70
2019-05-23T20:40:50.644Z,10.70
2019-05-23T20:43:16.715Z,10.80
2019-05-23T20:45:42.920Z,10.70
2019-05-23T20:48:09.631Z,10.70
2019-05-23T20:50:35.774Z,10.70
2019-05-23T20:53:01.931Z,10.60
2019-05-23T20:55:28.028Z,10.60
2019-05-23T20:57:54.368Z,10.50
2019-05-23T21:00:22.356Z,10.40
2019-05-23T21:02:48.429Z,10.40
2019-05-23T21:05:14.682Z,10.30
2019-05-23T21:07:41.075Z,10.20
2019-05-23T21:10:07.450Z,10.20
2019-05-23T21:12:33.507Z,10.20
2019-05-23T21:14:59.600Z,10.10
2019-05-23T21:17:26.972Z,10.20
2019-05-23T21:19:53.177Z,10.20
2019-05-23T21:22:19.537Z,10.30
2019-05-23T21:24:45.703Z,10.30
2019-05-23T21:27:11.903Z,10.30
2019-05-23T21:29:38.013Z,10.20
2019-05-23T21:32:04.195Z,10.20
2019-05-23T21:34:30.268Z,10.20
2019-05-23T21:36:56.451Z,10.10
2019-05-23T21:39:22.517Z,10.10
2019-05-23T21:41:48.595Z,10.10
2019-05-23T21:44:14.667Z,10.00
2019-05-23T21:46:40.755Z,10.10
2019-05-23T21:49:06.823Z,10.20
2019-05-23T21:51:32.911Z,10.20
2019-05-23T21:53:59.158Z,10.20
2019-05-23T21:56:25.387Z,10.20
2019-05-23T21:58:51.463Z,10.30
2019-05-23T22:01:20.864Z,10.30
2019-05-23T22:03:49.338Z,10.30
2019-05-23T22:06:17.427Z,10.20
2019-05-23T22:08:44.396Z,10.20
2019-05-23T22:11:10.875Z,10.10
2019-05-23T22:13:36.950Z,10.10
2019-05-23T22:16:03.234Z,10.10
2019-05-23T22:18:30.504Z,10.00
2019-05-23T22:20:56.696Z,9.90
2019-05-23T22:23:22.858Z,9.90
2019-05-23T22:25:49.048Z,9.80
2019-05-23T22:28:15.513Z,9.80
2019-05-23T22:30:42.118Z,9.70
2019-05-23T22:33:08.691Z,9.70
2019-05-23T22:35:34.967Z,9.60
2019-05-23T22:38:01.141Z,9.60
2019-05-23T22:40:27.204Z,9.70
2019-05-23T22:42:56.180Z,9.60
2019-05-23T22:45:24.158Z,9.60
2019-05-23T22:47:50.332Z,9.50
2019-05-23T22:50:16.704Z,9.60
2019-05-23T22:52:42.780Z,9.60
2019-05-23T22:55:08.838Z,9.60
2019-05-23T22:57:34.920Z,9.50
2019-05-23T23:00:00.981Z,9.50
2019-05-23T23:02:27.171Z,9.40
2019-05-23T23:04:53.234Z,9.30
2019-05-23T23:07:19.516Z,9.30
2019-05-23T23:09:45.679Z,9.20
2019-05-23T23:12:12.071Z,9.20
2019-05-23T23:14:38.148Z,9.10
2019-05-23T23:17:04.248Z,9.20
2019-05-23T23:19:30.312Z,9.10
2019-05-23T23:21:56.402Z,9.20
2019-05-23T23:24:22.476Z,9.20
2019-05-23T23:26:49.733Z,9.20
2019-05-23T23:29:15.851Z,9.20
2019-05-23T23:31:41.940Z,9.20
2019-05-23T23:34:08.004Z,9.10
2019-05-23T23:36:34.091Z,9.20
2019-05-23T23:39:00.175Z,9.20
2019-05-23T23:41:26.281Z,9.20
2019-05-23T23:43:59.475Z,9.20
2019-05-23T23:46:39.173Z,9.20
2019-05-23T23:49:23.873Z,9.20
2019-05-23T23:52:08.521Z,9.30
2019-05-23T23:54:53.292Z,9.30
2019-05-23T23:57:38.928Z,9.30
